createdAt,value
2023-10-10T00:00:55.443Z,19.67
2023-10-10T00:01:55.417Z,19.73
2023-10-10T00:02:55.433Z,19.82
2023-10-10T00:03:55.405Z,19.74
2023-10-10T00:04:55.377Z,19.77
2023-10-10T00:05:55.349Z,19.70
2023-10-10T00:06:55.355Z,19.79
2023-10-10T00:07:55.370Z,19.70
2023-10-10T00:08:55.315Z,19.71
2023-10-10T00:09:55.304Z,19.79
2023-10-10T00:10:55.308Z,19.74
2023-10-10T00:11:55.289Z,19.77
2023-10-10T00:12:56.364Z,19.81
2023-10-10T00:13:55.287Z,19.89
2023-10-10T00:14:55.242Z,19.76
2023-10-10T00:15:55.258Z,19.79
2023-10-10T00:16:55.451Z,19.67
2023-10-10T00:17:55.235Z,19.77
2023-10-10T00:18:55.213Z,19.63
2023-10-10T00:19:55.353Z,19.59
2023-10-10T00:20:55.185Z,19.62
2023-10-10T00:21:55.166Z,19.59
2023-10-10T00:22:55.179Z,19.66
2023-10-10T00:23:55.187Z,19.70
2023-10-10T00:24:55.152Z,19.69
2023-10-10T00:25:55.182Z,19.71
2023-10-10T00:26:55.113Z,19.82
2023-10-10T00:27:55.136Z,19.76
2023-10-10T00:28:55.250Z,19.79
2023-10-10T00:29:55.096Z,19.74
2023-10-10T00:30:56.107Z,19.74
2023-10-10T00:31:55.102Z,19.74
2023-10-10T00:32:55.076Z,19.76
2023-10-10T00:33:56.060Z,19.77
2023-10-10T00:34:55.092Z,19.77
2023-10-10T00:35:55.038Z,19.74
2023-10-10T00:36:55.046Z,19.77
2023-10-10T00:37:55.033Z,19.77
2023-10-10T00:38:54.983Z,19.74
2023-10-10T00:39:54.997Z,19.79
2023-10-10T00:40:55.026Z,19.71
2023-10-10T00:41:54.986Z,19.64
2023-10-10T00:42:54.946Z,19.69
2023-10-10T00:43:55.100Z,19.64
2023-10-10T00:44:54.941Z,19.76
2023-10-10T00:45:54.919Z,19.67
2023-10-10T00:46:54.982Z,19.64
2023-10-10T00:47:54.992Z,19.66
2023-10-10T00:48:54.880Z,19.79
2023-10-10T00:49:54.962Z,19.73
2023-10-10T00:50:54.860Z,19.74
2023-10-10T00:51:54.879Z,19.76
2023-10-10T00:52:54.983Z,19.73
2023-10-10T00:53:54.889Z,19.84
2023-10-10T00:54:54.842Z,19.77
2023-10-10T00:55:54.937Z,19.77
2023-10-10T00:56:55.886Z,19.76
2023-10-10T00:57:54.900Z,19.73
2023-10-10T00:58:54.856Z,19.73
2023-10-10T00:59:54.767Z,19.76
2023-10-10T01:00:54.777Z,19.71
2023-10-10T01:01:54.776Z,19.66
2023-10-10T01:02:55.521Z,19.66
2023-10-10T01:03:54.828Z,19.76
2023-10-10T01:04:54.877Z,19.63
2023-10-10T01:05:54.716Z,19.66
2023-10-10T01:06:54.756Z,19.64
2023-10-10T01:07:54.716Z,19.64
2023-10-10T01:08:54.682Z,19.64
2023-10-10T01:09:54.835Z,19.69
2023-10-10T01:10:54.712Z,19.58
2023-10-10T01:11:54.640Z,19.69
2023-10-10T01:12:54.619Z,19.64
2023-10-10T01:13:54.695Z,19.67
2023-10-10T01:14:54.744Z,19.64
2023-10-10T01:15:54.592Z,19.64
2023-10-10T01:16:55.746Z,19.63
2023-10-10T01:17:54.630Z,19.59
2023-10-10T01:18:54.558Z,19.54
2023-10-10T01:19:54.618Z,19.63
2023-10-10T01:20:54.545Z,19.62
2023-10-10T01:21:54.521Z,19.64
2023-10-10T01:22:54.530Z,19.58
2023-10-10T01:23:54.499Z,19.64
2023-10-10T01:24:54.480Z,19.56
2023-10-10T01:25:54.528Z,19.66
2023-10-10T01:26:55.342Z,19.64
2023-10-10T01:27:54.448Z,19.67
2023-10-10T01:28:54.472Z,19.63
2023-10-10T01:29:54.436Z,19.63
2023-10-10T01:30:54.500Z,19.67
2023-10-10T01:31:54.563Z,19.62
2023-10-10T01:32:54.450Z,19.56
2023-10-10T01:33:54.387Z,19.56
2023-10-10T01:34:54.420Z,19.62
2023-10-10T01:35:54.362Z,19.62
2023-10-10T01:36:54.362Z,19.64
2023-10-10T01:37:54.392Z,19.64
2023-10-10T01:38:54.345Z,19.67
2023-10-10T01:39:54.329Z,19.66
2023-10-10T01:40:54.467Z,19.64
2023-10-10T01:41:54.317Z,19.66
2023-10-10T01:42:54.331Z,19.63
2023-10-10T01:43:54.463Z,19.64
2023-10-10T01:44:54.325Z,19.69
2023-10-10T01:45:54.260Z,19.62
2023-10-10T01:46:55.302Z,19.67
2023-10-10T01:47:54.277Z,19.64
2023-10-10T01:48:54.235Z,19.63
2023-10-10T01:49:54.336Z,19.62
2023-10-10T01:50:54.239Z,19.59
2023-10-10T01:51:54.209Z,19.59
2023-10-10T01:52:54.186Z,19.56
2023-10-10T01:53:54.174Z,19.55
2023-10-10T01:54:54.191Z,19.52
2023-10-10T01:55:54.219Z,19.55
2023-10-10T01:56:54.127Z,19.51
2023-10-10T01:57:54.120Z,19.52
2023-10-10T01:58:55.244Z,19.54
2023-10-10T01:59:54.203Z,19.44
2023-10-10T02:00:54.087Z,19.58
2023-10-10T02:01:55.257Z,19.47
2023-10-10T02:02:54.351Z,19.45
2023-10-10T02:04:01.910Z,19.62
2023-10-10T02:04:54.035Z,19.44
2023-10-10T02:05:54.027Z,19.47
2023-10-10T02:06:54.013Z,19.41
2023-10-10T02:07:53.996Z,19.45
2023-10-10T02:08:54.092Z,19.37
2023-10-10T02:09:53.988Z,19.33
2023-10-10T02:10:53.967Z,19.41
2023-10-10T02:11:53.985Z,19.45
2023-10-10T02:12:53.965Z,19.45
2023-10-10T02:13:53.939Z,19.45
2023-10-10T02:14:53.926Z,19.44
2023-10-10T02:15:53.935Z,19.39
2023-10-10T02:16:53.900Z,19.36
2023-10-10T02:17:53.980Z,19.47
2023-10-10T02:18:53.884Z,19.54
2023-10-10T02:19:53.987Z,19.44
2023-10-10T02:20:53.892Z,19.47
2023-10-10T02:21:54.846Z,19.39
2023-10-10T02:22:53.837Z,19.44
2023-10-10T02:23:53.858Z,19.40
2023-10-10T02:24:53.816Z,19.47
2023-10-10T02:25:53.809Z,19.37
2023-10-10T02:26:53.794Z,19.40
2023-10-10T02:27:53.782Z,19.44
2023-10-10T02:28:53.784Z,19.52
2023-10-10T02:29:53.773Z,19.51
2023-10-10T02:30:54.170Z,19.51
2023-10-10T02:31:53.758Z,19.51
2023-10-10T02:32:53.752Z,19.40
2023-10-10T02:33:53.723Z,19.44
2023-10-10T02:34:53.727Z,19.47
2023-10-10T02:35:53.740Z,19.51
2023-10-10T02:36:53.682Z,19.52
2023-10-10T02:37:53.687Z,19.51
2023-10-10T02:38:53.663Z,19.55
2023-10-10T02:39:53.648Z,19.47
2023-10-10T02:40:53.638Z,19.49
2023-10-10T02:41:54.636Z,19.52
2023-10-10T02:42:53.617Z,19.40
2023-10-10T02:43:53.617Z,19.55
2023-10-10T02:44:53.611Z,19.51
2023-10-10T02:45:53.583Z,19.39
2023-10-10T02:46:54.279Z,19.51
2023-10-10T02:47:53.667Z,19.49
2023-10-10T02:48:53.553Z,19.49
2023-10-10T02:49:53.562Z,19.52
2023-10-10T02:50:53.527Z,19.49
2023-10-10T02:51:53.552Z,19.51
2023-10-10T02:52:53.579Z,19.49
2023-10-10T02:53:53.496Z,19.44
2023-10-10T02:54:53.482Z,19.45
2023-10-10T02:55:53.484Z,19.49
2023-10-10T02:56:53.483Z,19.41
2023-10-10T02:57:53.452Z,19.47
2023-10-10T02:58:53.469Z,19.54
2023-10-10T02:59:53.461Z,19.58
2023-10-10T03:00:53.424Z,19.52
2023-10-10T03:01:53.477Z,19.49
2023-10-10T03:02:53.537Z,19.47
2023-10-10T03:03:53.517Z,19.40
2023-10-10T03:04:53.376Z,19.44
2023-10-10T03:05:54.392Z,19.48
2023-10-10T03:06:53.365Z,19.47
2023-10-10T03:07:53.741Z,19.41
2023-10-10T03:08:53.337Z,19.47
2023-10-10T03:09:53.340Z,19.44
2023-10-10T03:10:53.358Z,19.49
2023-10-10T03:11:53.352Z,19.48
2023-10-10T03:12:53.332Z,19.49
2023-10-10T03:13:53.278Z,19.47
2023-10-10T03:14:53.277Z,19.44
2023-10-10T03:15:53.346Z,19.54
2023-10-10T03:16:53.268Z,19.55
2023-10-10T03:17:53.277Z,19.49
2023-10-10T03:18:53.249Z,19.47
2023-10-10T03:19:53.202Z,19.54
2023-10-10T03:20:54.217Z,19.54
2023-10-10T03:21:53.183Z,19.55
2023-10-10T03:22:53.171Z,19.51
2023-10-10T03:23:53.195Z,19.47
2023-10-10T03:24:53.172Z,19.55
2023-10-10T03:25:53.159Z,19.58
2023-10-10T03:26:53.145Z,19.47
2023-10-10T03:27:53.132Z,19.48
2023-10-10T03:28:53.118Z,19.52
2023-10-10T03:29:53.119Z,19.48
2023-10-10T03:30:53.097Z,19.51
2023-10-10T03:31:53.145Z,19.45
2023-10-10T03:32:53.143Z,19.48
2023-10-10T03:33:53.049Z,19.49
2023-10-10T03:34:53.067Z,19.56
2023-10-10T03:35:53.051Z,19.41
2023-10-10T03:36:53.032Z,19.49
2023-10-10T03:37:53.011Z,19.51
2023-10-10T03:38:52.997Z,19.51
2023-10-10T03:39:53.000Z,19.58
2023-10-10T03:40:52.998Z,19.49
2023-10-10T03:41:52.958Z,19.51
2023-10-10T03:42:52.947Z,19.55
2023-10-10T03:43:52.947Z,19.47
2023-10-10T03:44:52.929Z,19.47
2023-10-10T03:45:52.973Z,19.45
2023-10-10T03:46:52.914Z,19.58
2023-10-10T03:47:52.930Z,19.52
2023-10-10T03:48:52.885Z,19.47
2023-10-10T03:49:52.887Z,19.55
2023-10-10T03:50:52.871Z,19.41
2023-10-10T03:51:52.877Z,19.40
2023-10-10T03:52:52.843Z,19.49
2023-10-10T03:53:52.845Z,19.44
2023-10-10T03:54:52.815Z,19.47
2023-10-10T03:55:52.855Z,19.54
2023-10-10T03:56:52.838Z,19.56
2023-10-10T03:57:52.810Z,19.55
2023-10-10T03:58:52.856Z,19.47
2023-10-10T03:59:52.926Z,19.47
2023-10-10T04:00:52.826Z,19.54
2023-10-10T04:01:52.788Z,19.58
2023-10-10T04:02:52.854Z,19.58
2023-10-10T04:03:52.761Z,19.55
2023-10-10T04:04:52.736Z,19.48
2023-10-10T04:05:52.734Z,19.47
2023-10-10T04:06:52.693Z,19.45
2023-10-10T04:07:52.671Z,19.47
2023-10-10T04:08:52.683Z,19.45
2023-10-10T04:09:52.718Z,19.55
2023-10-10T04:10:52.635Z,19.51
2023-10-10T04:11:52.665Z,19.59
2023-10-10T04:12:52.642Z,19.47
2023-10-10T04:13:52.622Z,19.45
2023-10-10T04:14:52.614Z,19.49
2023-10-10T04:15:52.623Z,19.52
2023-10-10T04:16:52.619Z,19.48
2023-10-10T04:17:52.677Z,19.44
2023-10-10T04:18:52.572Z,19.44
2023-10-10T04:19:52.581Z,19.29
2023-10-10T04:20:52.533Z,19.40
2023-10-10T04:21:52.520Z,19.39
2023-10-10T04:22:52.513Z,19.45
2023-10-10T04:23:52.508Z,19.39
2023-10-10T04:24:52.483Z,19.47
2023-10-10T04:25:52.512Z,19.54
2023-10-10T04:26:52.464Z,19.47
2023-10-10T04:27:52.467Z,19.44
2023-10-10T04:28:52.487Z,19.52
2023-10-10T04:29:52.442Z,19.49
2023-10-10T04:30:52.422Z,19.45
2023-10-10T04:31:52.435Z,19.56
2023-10-10T04:32:52.460Z,19.48
2023-10-10T04:33:52.386Z,19.44
2023-10-10T04:34:52.388Z,19.47
2023-10-10T04:35:52.394Z,19.52
2023-10-10T04:36:52.364Z,19.52
2023-10-10T04:37:52.373Z,19.47
2023-10-10T04:38:52.322Z,19.40
2023-10-10T04:39:52.334Z,19.39
2023-10-10T04:40:52.320Z,19.51
2023-10-10T04:41:52.320Z,19.47
2023-10-10T04:42:52.332Z,19.44
2023-10-10T04:43:54.670Z,19.49
2023-10-10T04:44:52.287Z,19.44
2023-10-10T04:45:52.306Z,19.40
2023-10-10T04:46:53.253Z,19.54
2023-10-10T04:47:52.324Z,19.49
2023-10-10T04:48:52.226Z,19.48
2023-10-10T04:49:52.202Z,19.51
2023-10-10T04:50:52.245Z,19.47
2023-10-10T04:51:52.182Z,19.52
2023-10-10T04:52:52.181Z,19.44
2023-10-10T04:53:52.175Z,19.47
2023-10-10T04:54:52.159Z,19.49
2023-10-10T04:55:52.175Z,19.48
2023-10-10T04:56:52.131Z,19.45
2023-10-10T04:57:52.129Z,19.55
2023-10-10T04:58:52.127Z,19.44
2023-10-10T04:59:52.138Z,19.48
2023-10-10T05:00:52.114Z,19.55
2023-10-10T05:01:52.128Z,19.48
2023-10-10T05:02:52.149Z,19.41
2023-10-10T05:03:52.100Z,19.41
2023-10-10T05:04:52.049Z,19.54
2023-10-10T05:05:52.067Z,19.54
2023-10-10T05:06:52.058Z,19.48
2023-10-10T05:07:52.059Z,19.40
2023-10-10T05:08:52.038Z,19.54
2023-10-10T05:09:51.977Z,19.40
2023-10-10T05:10:52.026Z,19.44
2023-10-10T05:11:51.964Z,19.55
2023-10-10T05:12:52.007Z,19.52
2023-10-10T05:13:51.951Z,19.40
2023-10-10T05:14:51.938Z,19.34
2023-10-10T05:15:52.000Z,19.39
2023-10-10T05:16:51.941Z,19.36
2023-10-10T05:17:51.965Z,19.45
2023-10-10T05:18:51.903Z,19.39
2023-10-10T05:19:51.884Z,19.41
2023-10-10T05:20:51.882Z,19.37
2023-10-10T05:21:51.883Z,19.40
2023-10-10T05:22:51.865Z,19.36
2023-10-10T05:23:51.857Z,19.37
2023-10-10T05:24:51.814Z,19.30
2023-10-10T05:25:51.805Z,19.40
2023-10-10T05:26:51.796Z,19.37
2023-10-10T05:27:51.801Z,19.37
2023-10-10T05:28:51.814Z,19.37
2023-10-10T05:29:51.769Z,19.33
2023-10-10T05:30:51.748Z,19.44
2023-10-10T05:31:51.753Z,19.37
2023-10-10T05:32:51.795Z,19.45
2023-10-10T05:33:51.727Z,19.44
2023-10-10T05:34:51.751Z,19.41
2023-10-10T05:35:51.700Z,19.52
2023-10-10T05:36:51.725Z,19.49
2023-10-10T05:37:51.667Z,19.44
2023-10-10T05:38:51.895Z,19.52
2023-10-10T05:39:51.662Z,19.47
2023-10-10T05:40:51.642Z,19.40
2023-10-10T05:41:51.663Z,19.40
2023-10-10T05:42:51.620Z,19.41
2023-10-10T05:43:51.630Z,19.44
2023-10-10T05:44:51.615Z,19.47
2023-10-10T05:45:51.655Z,19.40
2023-10-10T05:46:51.578Z,19.40
2023-10-10T05:47:51.643Z,19.41
2023-10-10T05:48:51.560Z,19.47
2023-10-10T05:49:51.556Z,19.40
2023-10-10T05:50:51.560Z,19.48
2023-10-10T05:51:51.557Z,19.41
2023-10-10T05:52:51.526Z,19.41
2023-10-10T05:53:51.543Z,19.39
2023-10-10T05:54:51.488Z,19.40
2023-10-10T05:55:51.585Z,19.48
2023-10-10T05:56:51.527Z,19.52
2023-10-10T05:57:51.462Z,19.48
2023-10-10T05:58:53.234Z,19.44
2023-10-10T05:59:51.447Z,19.47
2023-10-10T06:00:51.504Z,19.48
2023-10-10T06:01:51.444Z,19.52
2023-10-10T06:02:51.565Z,19.48
2023-10-10T06:03:52.578Z,19.49
2023-10-10T06:04:51.389Z,19.44
2023-10-10T06:05:51.422Z,19.58
2023-10-10T06:06:51.369Z,19.45
2023-10-10T06:07:51.383Z,19.54
2023-10-10T06:08:51.346Z,19.44
2023-10-10T06:09:51.321Z,19.52
2023-10-10T06:10:51.326Z,19.55
2023-10-10T06:11:51.341Z,19.51
2023-10-10T06:12:51.321Z,19.41
2023-10-10T06:13:51.478Z,19.49
2023-10-10T06:14:51.268Z,19.47
2023-10-10T06:15:51.378Z,19.54
2023-10-10T06:16:51.288Z,19.48
2023-10-10T06:17:51.326Z,19.48
2023-10-10T06:18:51.284Z,19.55
2023-10-10T06:19:51.238Z,19.48
2023-10-10T06:21:08.862Z,19.47
2023-10-10T06:21:52.198Z,19.44
2023-10-10T06:22:51.200Z,19.40
2023-10-10T06:23:51.262Z,19.49
2023-10-10T06:24:51.173Z,19.52
2023-10-10T06:25:51.156Z,19.52
2023-10-10T06:26:51.138Z,19.41
2023-10-10T06:27:51.137Z,19.45
2023-10-10T06:28:51.225Z,19.56
2023-10-10T06:29:51.112Z,19.54
2023-10-10T06:30:51.124Z,19.47
2023-10-10T06:31:51.101Z,19.51
2023-10-10T06:32:51.223Z,19.47
2023-10-10T06:33:51.264Z,19.55
2023-10-10T06:34:51.165Z,19.49
2023-10-10T06:35:51.094Z,19.51
2023-10-10T06:36:51.086Z,19.63
2023-10-10T06:37:51.039Z,19.63
2023-10-10T06:38:58.612Z,19.82
2023-10-10T06:39:51.023Z,19.73
2023-10-10T06:40:50.985Z,19.63
2023-10-10T06:41:51.047Z,19.59
2023-10-10T06:42:50.989Z,19.58
2023-10-10T06:43:50.952Z,19.58
2023-10-10T06:44:51.009Z,19.55
2023-10-10T06:45:50.966Z,19.55
2023-10-10T06:46:50.940Z,19.62
2023-10-10T06:47:50.994Z,19.58
2023-10-10T06:48:50.914Z,19.64
2023-10-10T06:49:50.926Z,19.62
2023-10-10T06:50:51.070Z,19.63
2023-10-10T06:51:50.909Z,19.71
2023-10-10T06:52:50.867Z,19.82
2023-10-10T06:53:50.863Z,19.81
2023-10-10T06:54:50.898Z,19.73
2023-10-10T06:55:50.898Z,19.73
2023-10-10T06:56:50.820Z,19.74
2023-10-10T06:57:50.848Z,19.74
2023-10-10T06:58:50.840Z,19.85
2023-10-10T06:59:51.777Z,19.89
2023-10-10T07:00:50.795Z,19.91
2023-10-10T07:01:50.988Z,19.84
2023-10-10T07:02:50.875Z,19.88
2023-10-10T07:03:50.828Z,19.89
2023-10-10T07:04:50.727Z,19.94
2023-10-10T07:05:50.782Z,19.96
2023-10-10T07:06:50.724Z,19.99
2023-10-10T07:07:50.729Z,20.00
2023-10-10T07:08:50.694Z,19.96
2023-10-10T07:09:50.669Z,19.99
2023-10-10T07:10:50.665Z,19.92
2023-10-10T07:11:50.680Z,19.96
2023-10-10T07:12:50.637Z,19.99
2023-10-10T07:13:50.674Z,20.02
2023-10-10T07:14:50.777Z,19.91
2023-10-10T07:15:50.652Z,19.99
2023-10-10T07:16:50.643Z,19.95
2023-10-10T07:17:50.715Z,19.96
2023-10-10T07:18:50.586Z,19.91
2023-10-10T07:19:50.590Z,19.96
2023-10-10T07:20:50.577Z,19.96
2023-10-10T07:21:50.557Z,20.04
2023-10-10T07:22:50.530Z,20.11
2023-10-10T07:23:50.543Z,20.04
2023-10-10T07:24:50.510Z,20.11
2023-10-10T07:25:50.503Z,20.03
2023-10-10T07:26:50.544Z,20.16
2023-10-10T07:27:50.500Z,20.19
2023-10-10T07:28:50.536Z,20.19
2023-10-10T07:29:50.458Z,20.21
2023-10-10T07:30:50.464Z,20.19
2023-10-10T07:31:50.460Z,20.04
2023-10-10T07:32:50.834Z,20.14
2023-10-10T07:33:50.426Z,20.18
2023-10-10T07:34:50.434Z,20.16
2023-10-10T07:35:50.431Z,20.19
2023-10-10T07:36:50.413Z,20.21
2023-10-10T07:37:50.367Z,20.18
2023-10-10T07:38:50.365Z,20.18
2023-10-10T07:39:50.395Z,20.18
2023-10-10T07:40:50.321Z,20.16
2023-10-10T07:41:50.328Z,20.11
2023-10-10T07:42:50.310Z,20.18
2023-10-10T07:43:50.331Z,20.29
2023-10-10T07:44:50.305Z,20.37
2023-10-10T07:45:50.288Z,20.29
2023-10-10T07:46:50.285Z,20.28
2023-10-10T07:47:50.457Z,20.26
2023-10-10T07:48:50.257Z,20.36
2023-10-10T07:49:50.238Z,20.40
2023-10-10T07:50:50.344Z,20.44
2023-10-10T07:51:50.205Z,20.44
2023-10-10T07:52:50.308Z,20.36
2023-10-10T07:53:50.267Z,20.41
2023-10-10T07:54:50.172Z,20.40
2023-10-10T07:55:50.181Z,20.39
2023-10-10T07:56:50.185Z,20.43
2023-10-10T07:57:50.200Z,20.43
2023-10-10T07:58:53.279Z,20.41
2023-10-10T07:59:50.140Z,20.47
2023-10-10T08:00:50.118Z,20.47
2023-10-10T08:01:50.142Z,20.51
2023-10-10T08:02:50.150Z,20.52
2023-10-10T08:03:50.177Z,20.62
2023-10-10T08:04:50.091Z,20.48
2023-10-10T08:05:50.142Z,20.52
2023-10-10T08:06:50.105Z,20.63
2023-10-10T08:07:50.031Z,20.60
2023-10-10T08:08:50.151Z,20.65
2023-10-10T08:09:50.025Z,20.70
2023-10-10T08:10:50.224Z,20.65
2023-10-10T08:11:50.077Z,20.77
2023-10-10T08:12:50.092Z,20.74
2023-10-10T08:13:50.157Z,20.74
2023-10-10T08:14:50.044Z,20.72
2023-10-10T08:15:49.964Z,20.65
2023-10-10T08:16:49.995Z,20.75
2023-10-10T08:17:50.009Z,20.70
2023-10-10T08:18:49.907Z,20.69
2023-10-10T08:19:49.905Z,20.70
2023-10-10T08:20:49.930Z,20.75
2023-10-10T08:21:49.908Z,20.78
2023-10-10T08:22:49.877Z,20.69
2023-10-10T08:23:49.894Z,20.75
2023-10-10T08:24:49.850Z,20.66
2023-10-10T08:25:49.825Z,20.72
2023-10-10T08:26:49.872Z,20.78
2023-10-10T08:27:49.841Z,20.88
2023-10-10T08:28:49.808Z,20.80
2023-10-10T08:29:49.814Z,20.85
2023-10-10T08:30:49.829Z,20.82
2023-10-10T08:31:49.774Z,20.92
2023-10-10T08:32:49.872Z,20.97
2023-10-10T08:33:49.808Z,21.02
2023-10-10T08:34:49.744Z,21.00
2023-10-10T08:35:51.519Z,21.09
2023-10-10T08:36:49.700Z,21.05
2023-10-10T08:37:49.704Z,21.03
2023-10-10T08:38:49.739Z,21.07
2023-10-10T08:39:49.720Z,21.15
2023-10-10T08:40:49.667Z,21.17
2023-10-10T08:41:49.690Z,21.14
2023-10-10T08:42:49.633Z,21.09
2023-10-10T08:43:49.664Z,21.12
2023-10-10T08:44:49.654Z,21.12
2023-10-10T08:45:49.636Z,21.17
2023-10-10T08:46:49.791Z,21.18
2023-10-10T08:47:49.813Z,21.30
2023-10-10T08:48:49.573Z,21.27
2023-10-10T08:49:49.632Z,21.33
2023-10-10T08:50:49.586Z,21.32
2023-10-10T08:51:49.615Z,21.29
2023-10-10T08:52:49.547Z,21.18
2023-10-10T08:53:49.597Z,21.17
2023-10-10T08:54:49.531Z,21.20
2023-10-10T08:55:49.517Z,21.36
2023-10-10T08:56:49.542Z,21.36
2023-10-10T08:57:49.472Z,21.40
2023-10-10T08:58:49.472Z,21.40
2023-10-10T08:59:49.563Z,21.39
2023-10-10T09:00:50.118Z,21.46
2023-10-10T09:01:49.448Z,21.54
2023-10-10T09:02:49.607Z,21.55
2023-10-10T09:03:49.554Z,21.50
2023-10-10T09:04:49.420Z,21.54
2023-10-10T09:05:49.400Z,21.58
2023-10-10T09:06:49.367Z,21.51
2023-10-10T09:07:49.384Z,21.50
2023-10-10T09:08:49.425Z,21.46
2023-10-10T09:09:49.340Z,21.50
2023-10-10T09:10:49.524Z,21.55
2023-10-10T09:11:49.378Z,21.52
2023-10-10T09:12:49.304Z,21.50
2023-10-10T09:13:49.296Z,21.57
2023-10-10T09:14:49.355Z,21.51
2023-10-10T09:15:49.282Z,21.48
2023-10-10T09:16:49.327Z,21.57
2023-10-10T09:17:49.305Z,21.37
2023-10-10T09:18:49.237Z,21.46
2023-10-10T09:19:49.236Z,21.51
2023-10-10T09:20:49.419Z,21.55
2023-10-10T09:21:49.226Z,21.60
2023-10-10T09:22:49.206Z,21.67
2023-10-10T09:23:49.263Z,21.61
2023-10-10T09:24:49.182Z,21.57
2023-10-10T09:25:49.154Z,21.52
2023-10-10T09:26:49.220Z,21.64
2023-10-10T09:27:49.152Z,21.66
2023-10-10T09:28:49.149Z,21.72
2023-10-10T09:29:49.179Z,21.83
2023-10-10T09:30:49.152Z,21.75
2023-10-10T09:31:49.134Z,21.76
2023-10-10T09:32:49.187Z,21.79
2023-10-10T09:33:49.104Z,21.83
2023-10-10T09:34:49.057Z,21.82
2023-10-10T09:35:49.670Z,21.82
2023-10-10T09:36:49.051Z,21.85
2023-10-10T09:37:49.032Z,21.89
2023-10-10T09:38:49.142Z,21.98
2023-10-10T09:39:49.023Z,22.02
2023-10-10T09:40:48.994Z,22.04
2023-10-10T09:41:49.119Z,22.07
2023-10-10T09:42:48.980Z,22.11
2023-10-10T09:43:48.973Z,22.18
2023-10-10T09:44:49.180Z,22.18
2023-10-10T09:45:48.952Z,22.26
2023-10-10T09:46:48.963Z,22.25
2023-10-10T09:47:49.022Z,22.39
2023-10-10T09:48:48.910Z,22.43
2023-10-10T09:49:48.898Z,22.39
2023-10-10T09:50:48.970Z,22.35
2023-10-10T09:51:48.866Z,22.30
2023-10-10T09:52:48.879Z,22.35
2023-10-10T09:53:48.965Z,22.43
2023-10-10T09:54:48.842Z,22.41
2023-10-10T09:55:48.846Z,22.44
2023-10-10T09:56:48.926Z,22.41
2023-10-10T09:57:48.818Z,22.50
2023-10-10T09:58:48.831Z,22.41
2023-10-10T09:59:48.836Z,22.39
2023-10-10T10:00:48.769Z,22.39
2023-10-10T10:01:48.788Z,22.44
2023-10-10T10:02:48.946Z,22.48
2023-10-10T10:03:48.906Z,22.45
2023-10-10T10:04:48.761Z,22.44
2023-10-10T10:05:48.832Z,22.59
2023-10-10T10:07:06.092Z,22.59
2023-10-10T10:07:49.712Z,22.57
2023-10-10T10:08:48.757Z,22.39
2023-10-10T10:09:48.729Z,22.38
2023-10-10T10:10:48.692Z,22.45
2023-10-10T10:11:48.665Z,22.41
2023-10-10T10:12:48.648Z,22.39
2023-10-10T10:13:50.758Z,22.26
2023-10-10T10:14:49.655Z,22.17
2023-10-10T10:15:48.613Z,22.18
2023-10-10T10:16:48.626Z,22.15
2023-10-10T10:17:48.830Z,22.10
2023-10-10T10:18:48.630Z,22.26
2023-10-10T10:19:49.584Z,22.17
2023-10-10T10:20:48.944Z,22.14
2023-10-10T10:21:48.558Z,22.25
2023-10-10T10:22:48.546Z,22.25
2023-10-10T10:23:48.632Z,22.36
2023-10-10T10:24:48.516Z,22.30
2023-10-10T10:25:48.567Z,22.29
2023-10-10T10:26:48.522Z,22.33
2023-10-10T10:27:48.494Z,22.20
2023-10-10T10:28:48.525Z,22.14
2023-10-10T10:29:48.505Z,22.29
2023-10-10T10:30:48.456Z,22.41
2023-10-10T10:31:48.522Z,22.32
2023-10-10T10:32:48.557Z,22.41
2023-10-10T10:33:48.422Z,22.38
2023-10-10T10:34:48.488Z,22.41
2023-10-10T10:35:49.168Z,22.41
2023-10-10T10:36:48.487Z,22.38
2023-10-10T10:37:48.361Z,22.47
2023-10-10T10:38:48.420Z,22.53
2023-10-10T10:39:48.360Z,22.51
2023-10-10T10:40:48.365Z,22.44
2023-10-10T10:41:48.382Z,22.33
2023-10-10T10:42:48.363Z,22.33
2023-10-10T10:43:48.360Z,22.44
2023-10-10T10:44:48.492Z,22.50
2023-10-10T10:45:48.349Z,22.55
2023-10-10T10:46:48.282Z,22.68
2023-10-10T10:47:48.374Z,22.80
2023-10-10T10:48:48.275Z,22.87
2023-10-10T10:49:48.259Z,22.70
2023-10-10T10:50:48.297Z,22.69
2023-10-10T10:51:48.241Z,22.75
2023-10-10T10:52:48.224Z,22.84
2023-10-10T10:53:48.331Z,22.94
2023-10-10T10:54:48.187Z,23.03
2023-10-10T10:55:48.209Z,22.99
2023-10-10T10:56:52.110Z,23.08
2023-10-10T10:57:50.739Z,23.02
2023-10-10T10:58:48.182Z,23.17
2023-10-10T10:59:48.205Z,23.13
2023-10-10T11:00:48.153Z,23.15
2023-10-10T11:01:48.174Z,23.18
2023-10-10T11:02:48.175Z,23.17
2023-10-10T11:03:48.106Z,23.10
2023-10-10T11:04:48.131Z,23.15
2023-10-10T11:05:48.136Z,23.00
2023-10-10T11:06:48.075Z,22.96
2023-10-10T11:07:48.080Z,22.99
2023-10-10T11:08:57.207Z,23.09
2023-10-10T11:09:49.053Z,23.09
2023-10-10T11:10:48.003Z,23.17
2023-10-10T11:11:47.999Z,23.09
2023-10-10T11:12:47.980Z,23.12
2023-10-10T11:13:47.980Z,23.15
2023-10-10T11:14:48.458Z,23.31
2023-10-10T11:15:47.991Z,23.34
2023-10-10T11:16:48.273Z,23.41
2023-10-10T11:17:48.023Z,23.44
2023-10-10T11:18:47.963Z,23.48
2023-10-10T11:19:47.925Z,23.48
2023-10-10T11:20:47.968Z,23.47
2023-10-10T11:21:47.884Z,23.43
2023-10-10T11:22:47.922Z,23.50
2023-10-10T11:23:48.169Z,23.56
2023-10-10T11:24:47.869Z,23.58
2023-10-10T11:25:47.830Z,23.47
2023-10-10T11:26:47.877Z,23.54
2023-10-10T11:27:47.819Z,23.50
2023-10-10T11:28:47.815Z,23.58
2023-10-10T11:29:47.832Z,23.56
2023-10-10T11:30:47.793Z,23.47
2023-10-10T11:31:47.846Z,23.56
2023-10-10T11:32:48.602Z,23.56
2023-10-10T11:33:47.741Z,23.54
2023-10-10T11:34:47.731Z,23.36
2023-10-10T11:35:47.848Z,23.44
2023-10-10T11:36:47.724Z,23.51
2023-10-10T11:37:47.726Z,23.62
2023-10-10T11:38:47.735Z,23.71
2023-10-10T11:39:47.705Z,23.73
2023-10-10T11:40:47.661Z,23.77
2023-10-10T11:41:47.768Z,23.83
2023-10-10T11:42:47.679Z,23.86
2023-10-10T11:43:47.640Z,23.88
2023-10-10T11:44:47.697Z,23.83
2023-10-10T11:45:47.724Z,23.83
2023-10-10T11:46:47.644Z,23.84
2023-10-10T11:47:47.735Z,23.69
2023-10-10T11:48:47.608Z,23.86
2023-10-10T11:49:47.561Z,23.88
2023-10-10T11:50:47.595Z,23.91
2023-10-10T11:51:47.536Z,23.93
2023-10-10T11:52:47.543Z,23.98
2023-10-10T11:53:47.608Z,24.02
2023-10-10T11:54:47.518Z,23.80
2023-10-10T11:55:47.530Z,23.76
2023-10-10T11:56:47.643Z,23.92
2023-10-10T11:57:47.476Z,24.08
2023-10-10T11:58:47.462Z,24.10
2023-10-10T11:59:47.505Z,24.16
2023-10-10T12:00:47.453Z,24.11
2023-10-10T12:01:47.467Z,24.13
2023-10-10T12:02:47.485Z,24.05
2023-10-10T12:03:47.512Z,24.08
2023-10-10T12:04:47.414Z,24.14
2023-10-10T12:05:47.482Z,24.11
2023-10-10T12:06:47.487Z,24.05
2023-10-10T12:07:47.437Z,23.99
2023-10-10T12:08:47.518Z,23.98
2023-10-10T12:09:47.447Z,24.05
2023-10-10T12:10:47.410Z,24.14
2023-10-10T12:11:47.636Z,24.17
2023-10-10T12:12:47.481Z,24.21
2023-10-10T12:13:47.377Z,24.23
2023-10-10T12:14:47.392Z,24.20
2023-10-10T12:15:47.332Z,24.03
2023-10-10T12:16:47.324Z,24.17
2023-10-10T12:17:47.562Z,24.10
2023-10-10T12:18:47.291Z,24.10
2023-10-10T12:19:47.270Z,24.01
2023-10-10T12:20:47.302Z,24.10
2023-10-10T12:21:47.352Z,23.95
2023-10-10T12:22:47.272Z,23.92
2023-10-10T12:23:47.306Z,23.83
2023-10-10T12:24:47.224Z,23.74
2023-10-10T12:25:47.213Z,23.91
2023-10-10T12:26:47.207Z,23.88
2023-10-10T12:27:47.337Z,23.95
2023-10-10T12:28:47.194Z,24.11
2023-10-10T12:29:47.325Z,23.92
2023-10-10T12:30:47.171Z,23.96
2023-10-10T12:31:47.225Z,24.14
2023-10-10T12:32:47.201Z,24.17
2023-10-10T12:33:47.124Z,24.05
2023-10-10T12:34:47.381Z,24.01
2023-10-10T12:35:47.216Z,24.02
2023-10-10T12:36:47.124Z,24.08
2023-10-10T12:37:47.068Z,24.13
2023-10-10T12:38:47.093Z,24.16
2023-10-10T12:39:47.229Z,24.23
2023-10-10T12:40:47.167Z,24.23
2023-10-10T12:41:47.162Z,24.13
2023-10-10T12:42:47.078Z,24.16
2023-10-10T12:43:47.031Z,24.10
2023-10-10T12:44:47.125Z,24.11
2023-10-10T12:45:47.104Z,24.18
2023-10-10T12:46:47.030Z,24.16
2023-10-10T12:47:47.033Z,24.05
2023-10-10T12:48:46.966Z,24.23
2023-10-10T12:49:46.954Z,24.05
2023-10-10T12:50:46.959Z,24.05
2023-10-10T12:51:46.928Z,23.95
2023-10-10T12:52:46.896Z,24.05